Terminal Aerodrome Forecast
Issued by NWS

Home | Current Version | Previous Version | Text Only | Print | Product List | Glossary On
Versions: 1 2 3 4 5 6 7 8 9 10 11 12 13 14 15 16
000
FTUS44 KHGX 161138
TAFCXO
TAF
KCXO 161138Z 1612/1712 00000KT P6SM OVC100
     FM161500 13007KT P6SM BKN060 OVC100
     FM161800 14006KT P6SM -RA OVC050
     FM162200 09005KT P6SM -SHRA BKN025 OVC050
     FM170100 05005KT 4SM +SHRA BR OVC015
     FM170500 09005KT P6SM SCT010 OVC020
     FM171000 07003KT 4SM BR BKN007=

USA.gov is the U.S. government's official web portal to all federal, state and local government web resources and services.